sensor_id;sensor_type;location;lat;lon;timestamp;temperature;humidity
2391;DHT22;22957;50.824;4.360;2022-10-31T00:01:33;17.00;99.90
2391;DHT22;22957;50.824;4.360;2022-10-31T00:04:02;16.50;99.90
2391;DHT22;22957;50.824;4.360;2022-10-31T00:06:29;16.70;99.90
2391;DHT22;22957;50.824;4.360;2022-10-31T00:08:59;16.70;99.90
2391;DHT22;22957;50.824;4.360;2022-10-31T00:11:25;16.50;99.90
2391;DHT22;22957;50.824;4.360;2022-10-31T00:13:51;16.60;99.90
2391;DHT22;22957;50.824;4.360;2022-10-31T00:16:19;16.90;99.90
2391;DHT22;22957;50.824;4.360;2022-10-31T00:18:53;16.60;99.90
2391;DHT22;22957;50.824;4.360;2022-10-31T00:21:20;16.40;99.90
2391;DHT22;22957;50.824;4.360;2022-10-31T00:23:46;16.60;99.90
2391;DHT22;22957;50.824;4.360;2022-10-31T00:26:12;16.40;99.90
2391;DHT22;22957;50.824;4.360;2022-10-31T00:28:37;16.60;99.90
2391;DHT22;22957;50.824;4.360;2022-10-31T00:31:05;16.30;99.90
2391;DHT22;22957;50.824;4.360;2022-10-31T00:33:34;16.50;99.90
2391;DHT22;22957;50.824;4.360;2022-10-31T00:36:00;16.70;99.90
2391;DHT22;22957;50.824;4.360;2022-10-31T00:38:26;16.60;99.90
2391;DHT22;22957;50.824;4.360;2022-10-31T00:40:51;16.40;99.90
2391;DHT22;22957;50.824;4.360;2022-10-31T00:43:17;16.50;99.90
2391;DHT22;22957;50.824;4.360;2022-10-31T00:45:43;16.30;99.90
2391;DHT22;22957;50.824;4.360;2022-10-31T00:48:09;16.50;99.90
2391;DHT22;22957;50.824;4.360;2022-10-31T00:50:35;16.40;99.90
2391;DHT22;22957;50.824;4.360;2022-10-31T00:53:01;16.30;99.90
2391;DHT22;22957;50.824;4.360;2022-10-31T00:55:26;16.50;99.90
2391;DHT22;22957;50.824;4.360;2022-10-31T00:57:52;16.30;99.90
2391;DHT22;22957;50.824;4.360;2022-10-31T01:00:18;16.20;99.90
2391;DHT22;22957;50.824;4.360;2022-10-31T01:02:43;16.40;99.90
2391;DHT22;22957;50.824;4.360;2022-10-31T01:05:09;16.10;99.90
2391;DHT22;22957;50.824;4.360;2022-10-31T01:07:40;16.50;99.90
2391;DHT22;22957;50.824;4.360;2022-10-31T01:10:08;16.40;99.90
2391;DHT22;22957;50.824;4.360;2022-10-31T01:12:45;16.20;99.90
2391;DHT22;22957;50.824;4.360;2022-10-31T01:15:13;16.20;99.90
2391;DHT22;22957;50.824;4.360;2022-10-31T01:17:39;16.10;99.90
2391;DHT22;22957;50.824;4.360;2022-10-31T01:20:07;16.20;99.90
2391;DHT22;22957;50.824;4.360;2022-10-31T01:22:33;15.90;99.90
2391;DHT22;22957;50.824;4.360;2022-10-31T01:24:59;15.90;99.90
2391;DHT22;22957;50.824;4.360;2022-10-31T01:27:25;16.10;99.90
2391;DHT22;22957;50.824;4.360;2022-10-31T01:29:50;16.00;99.90
2391;DHT22;22957;50.824;4.360;2022-10-31T01:32:16;16.30;99.90
2391;DHT22;22957;50.824;4.360;2022-10-31T01:34:42;16.10;99.90
2391;DHT22;22957;50.824;4.360;2022-10-31T01:37:07;16.30;99.90
2391;DHT22;22957;50.824;4.360;2022-10-31T01:39:33;16.10;99.90
2391;DHT22;22957;50.824;4.360;2022-10-31T01:41:59;16.10;99.90
2391;DHT22;22957;50.824;4.360;2022-10-31T01:47:05;16.10;99.90
2391;DHT22;22957;50.824;4.360;2022-10-31T01:49:57;15.90;99.90
2391;DHT22;22957;50.824;4.360;2022-10-31T01:52:35;15.70;99.90
2391;DHT22;22957;50.824;4.360;2022-10-31T01:57:56;15.90;99.90
2391;DHT22;22957;50.824;4.360;2022-10-31T02:00:23;15.60;99.90
2391;DHT22;22957;50.824;4.360;2022-10-31T02:02:49;15.60;99.90
2391;DHT22;22957;50.824;4.360;2022-10-31T02:05:25;15.80;99.90
2391;DHT22;22957;50.824;4.360;2022-10-31T02:08:06;15.80;99.90
2391;DHT22;22957;50.824;4.360;2022-10-31T02:10:34;15.60;99.90
2391;DHT22;22957;50.824;4.360;2022-10-31T02:13:03;15.70;99.90
2391;DHT22;22957;50.824;4.360;2022-10-31T02:15:31;15.70;99.90
2391;DHT22;22957;50.824;4.360;2022-10-31T02:17:57;15.80;99.90
2391;DHT22;22957;50.824;4.360;2022-10-31T02:20:24;15.80;99.90
2391;DHT22;22957;50.824;4.360;2022-10-31T02:36:53;15.90;99.90
2391;DHT22;22957;50.824;4.360;2022-10-31T02:45:18;15.30;99.90
2391;DHT22;22957;50.824;4.360;2022-10-31T02:47:46;15.20;99.90
2391;DHT22;22957;50.824;4.360;2022-10-31T02:50:23;15.40;99.90
2391;DHT22;22957;50.824;4.360;2022-10-31T02:52:51;15.30;99.90
2391;DHT22;22957;50.824;4.360;2022-10-31T02:57:59;15.40;99.90
2391;DHT22;22957;50.824;4.360;2022-10-31T03:00:25;15.30;99.90
2391;DHT22;22957;50.824;4.360;2022-10-31T03:03:12;15.50;99.90
2391;DHT22;22957;50.824;4.360;2022-10-31T03:05:55;15.40;99.90
2391;DHT22;22957;50.824;4.360;2022-10-31T03:11:01;15.50;99.90
2391;DHT22;22957;50.824;4.360;2022-10-31T03:19:16;15.40;99.90
2391;DHT22;22957;50.824;4.360;2022-10-31T03:21:56;15.20;99.90
2391;DHT22;22957;50.824;4.360;2022-10-31T03:24:27;15.10;99.90
2391;DHT22;22957;50.824;4.360;2022-10-31T03:26:58;14.70;99.90
2391;DHT22;22957;50.824;4.360;2022-10-31T03:29:27;15.00;99.90
2391;DHT22;22957;50.824;4.360;2022-10-31T03:32:00;15.10;99.90
2391;DHT22;22957;50.824;4.360;2022-10-31T03:34:26;14.80;99.90
2391;DHT22;22957;50.824;4.360;2022-10-31T03:36:55;15.00;99.90
2391;DHT22;22957;50.824;4.360;2022-10-31T03:39:23;14.80;99.90
2391;DHT22;22957;50.824;4.360;2022-10-31T03:42:02;15.20;99.90
2391;DHT22;22957;50.824;4.360;2022-10-31T03:44:31;15.40;99.90
2391;DHT22;22957;50.824;4.360;2022-10-31T03:46:57;15.40;99.90
2391;DHT22;22957;50.824;4.360;2022-10-31T03:49:23;15.90;99.90
2391;DHT22;22957;50.824;4.360;2022-10-31T03:52:01;15.50;99.90
2391;DHT22;22957;50.824;4.360;2022-10-31T03:54:45;15.70;99.90
2391;DHT22;22957;50.824;4.360;2022-10-31T03:57:28;15.10;99.90
2391;DHT22;22957;50.824;4.360;2022-10-31T04:00:06;15.60;99.90
2391;DHT22;22957;50.824;4.360;2022-10-31T04:02:36;15.50;99.90
2391;DHT22;22957;50.824;4.360;2022-10-31T04:05:04;15.60;99.90
2391;DHT22;22957;50.824;4.360;2022-10-31T04:07:33;15.60;99.90
2391;DHT22;22957;50.824;4.360;2022-10-31T04:10:04;15.00;99.90
2391;DHT22;22957;50.824;4.360;2022-10-31T04:12:31;15.20;99.90
2391;DHT22;22957;50.824;4.360;2022-10-31T04:14:58;14.80;99.90
2391;DHT22;22957;50.824;4.360;2022-10-31T04:17:27;15.00;99.90
2391;DHT22;22957;50.824;4.360;2022-10-31T04:19:54;14.80;99.90
2391;DHT22;22957;50.824;4.360;2022-10-31T04:22:20;15.10;99.90
2391;DHT22;22957;50.824;4.360;2022-10-31T04:24:46;15.30;99.90
2391;DHT22;22957;50.824;4.360;2022-10-31T04:27:11;14.70;99.90
2391;DHT22;22957;50.824;4.360;2022-10-31T04:29:37;14.40;99.90
2391;DHT22;22957;50.824;4.360;2022-10-31T04:32:03;14.20;99.90
2391;DHT22;22957;50.824;4.360;2022-10-31T04:34:28;14.40;99.90
2391;DHT22;22957;50.824;4.360;2022-10-31T04:36:54;14.10;99.90
2391;DHT22;22957;50.824;4.360;2022-10-31T04:39:19;13.90;99.90
2391;DHT22;22957;50.824;4.360;2022-10-31T04:41:45;14.10;99.90
2391;DHT22;22957;50.824;4.360;2022-10-31T04:44:11;13.90;99.90
2391;DHT22;22957;50.824;4.360;2022-10-31T04:46:37;14.00;99.90
2391;DHT22;22957;50.824;4.360;2022-10-31T04:49:03;14.20;99.90
2391;DHT22;22957;50.824;4.360;2022-10-31T04:51:28;14.10;99.90
2391;DHT22;22957;50.824;4.360;2022-10-31T04:53:54;14.30;99.90
2391;DHT22;22957;50.824;4.360;2022-10-31T04:56:20;14.10;99.90
2391;DHT22;22957;50.824;4.360;2022-10-31T04:58:45;14.40;99.90
2391;DHT22;22957;50.824;4.360;2022-10-31T05:01:12;14.60;99.90
2391;DHT22;22957;50.824;4.360;2022-10-31T05:03:38;14.80;99.90
2391;DHT22;22957;50.824;4.360;2022-10-31T05:06:05;14.80;99.90
2391;DHT22;22957;50.824;4.360;2022-10-31T05:08:31;14.50;99.90
2391;DHT22;22957;50.824;4.360;2022-10-31T05:11:01;14.80;99.90
2391;DHT22;22957;50.824;4.360;2022-10-31T05:13:28;14.60;99.90
2391;DHT22;22957;50.824;4.360;2022-10-31T05:15:54;14.00;99.90
2391;DHT22;22957;50.824;4.360;2022-10-31T05:18:20;14.00;99.90
2391;DHT22;22957;50.824;4.360;2022-10-31T05:20:46;14.10;99.90
2391;DHT22;22957;50.824;4.360;2022-10-31T05:23:11;14.20;99.90
2391;DHT22;22957;50.824;4.360;2022-10-31T05:25:37;14.10;99.90
2391;DHT22;22957;50.824;4.360;2022-10-31T05:28:05;14.30;99.90
2391;DHT22;22957;50.824;4.360;2022-10-31T05:30:31;14.20;99.90
2391;DHT22;22957;50.824;4.360;2022-10-31T05:32:58;14.20;99.90
2391;DHT22;22957;50.824;4.360;2022-10-31T05:35:29;14.30;99.90
2391;DHT22;22957;50.824;4.360;2022-10-31T05:37:57;14.20;99.90
2391;DHT22;22957;50.824;4.360;2022-10-31T05:40:26;14.10;99.90
2391;DHT22;22957;50.824;4.360;2022-10-31T05:42:54;14.40;99.90
2391;DHT22;22957;50.824;4.360;2022-10-31T05:45:20;14.10;99.90
2391;DHT22;22957;50.824;4.360;2022-10-31T05:47:58;14.40;99.90
2391;DHT22;22957;50.824;4.360;2022-10-31T05:50:25;14.40;99.90
2391;DHT22;22957;50.824;4.360;2022-10-31T05:52:57;14.40;99.90
2391;DHT22;22957;50.824;4.360;2022-10-31T05:55:23;14.90;99.90
2391;DHT22;22957;50.824;4.360;2022-10-31T05:57:50;15.20;99.90
2391;DHT22;22957;50.824;4.360;2022-10-31T06:00:15;15.20;99.90
2391;DHT22;22957;50.824;4.360;2022-10-31T06:02:41;15.10;99.90
2391;DHT22;22957;50.824;4.360;2022-10-31T06:05:07;15.60;99.90
2391;DHT22;22957;50.824;4.360;2022-10-31T06:07:34;15.80;99.90
2391;DHT22;22957;50.824;4.360;2022-10-31T06:10:02;15.40;99.90
2391;DHT22;22957;50.824;4.360;2022-10-31T06:12:28;15.50;99.90
2391;DHT22;22957;50.824;4.360;2022-10-31T06:14:57;15.20;99.90
2391;DHT22;22957;50.824;4.360;2022-10-31T06:17:23;15.40;99.90
2391;DHT22;22957;50.824;4.360;2022-10-31T06:19:48;15.20;99.90
2391;DHT22;22957;50.824;4.360;2022-10-31T06:22:14;14.80;99.90
2391;DHT22;22957;50.824;4.360;2022-10-31T06:24:40;15.20;99.90
2391;DHT22;22957;50.824;4.360;2022-10-31T06:27:06;15.00;99.90
2391;DHT22;22957;50.824;4.360;2022-10-31T06:29:31;15.40;99.90
2391;DHT22;22957;50.824;4.360;2022-10-31T06:31:57;15.30;99.90
2391;DHT22;22957;50.824;4.360;2022-10-31T06:34:23;15.20;99.90
2391;DHT22;22957;50.824;4.360;2022-10-31T06:36:49;15.20;99.90
2391;DHT22;22957;50.824;4.360;2022-10-31T06:39:15;15.50;99.90
2391;DHT22;22957;50.824;4.360;2022-10-31T06:41:41;15.40;99.90
2391;DHT22;22957;50.824;4.360;2022-10-31T06:44:07;15.20;99.90
2391;DHT22;22957;50.824;4.360;2022-10-31T06:46:33;15.30;99.90
2391;DHT22;22957;50.824;4.360;2022-10-31T06:48:59;15.50;99.90
2391;DHT22;22957;50.824;4.360;2022-10-31T06:51:25;15.20;99.90
2391;DHT22;22957;50.824;4.360;2022-10-31T06:53:51;15.10;99.90
2391;DHT22;22957;50.824;4.360;2022-10-31T06:56:17;15.00;99.90
2391;DHT22;22957;50.824;4.360;2022-10-31T06:58:42;15.00;99.90
2391;DHT22;22957;50.824;4.360;2022-10-31T07:01:09;15.00;99.90
2391;DHT22;22957;50.824;4.360;2022-10-31T07:03:36;15.00;99.90
2391;DHT22;22957;50.824;4.360;2022-10-31T07:06:01;15.00;99.90
2391;DHT22;22957;50.824;4.360;2022-10-31T07:08:27;15.00;99.90
2391;DHT22;22957;50.824;4.360;2022-10-31T07:10:56;14.70;99.90
2391;DHT22;22957;50.824;4.360;2022-10-31T07:13:25;14.60;99.90
2391;DHT22;22957;50.824;4.360;2022-10-31T07:15:52;14.80;99.90
2391;DHT22;22957;50.824;4.360;2022-10-31T07:18:19;14.80;99.90
2391;DHT22;22957;50.824;4.360;2022-10-31T07:20:46;14.40;99.90
2391;DHT22;22957;50.824;4.360;2022-10-31T07:23:12;14.90;99.90
2391;DHT22;22957;50.824;4.360;2022-10-31T07:25:41;14.80;99.90
2391;DHT22;22957;50.824;4.360;2022-10-31T07:28:08;14.70;99.90
2391;DHT22;22957;50.824;4.360;2022-10-31T07:30:34;15.00;99.90
2391;DHT22;22957;50.824;4.360;2022-10-31T07:33:00;14.60;99.90
2391;DHT22;22957;50.824;4.360;2022-10-31T07:35:28;14.60;99.90
2391;DHT22;22957;50.824;4.360;2022-10-31T07:37:54;14.80;99.90
2391;DHT22;22957;50.824;4.360;2022-10-31T07:40:22;15.20;99.90
2391;DHT22;22957;50.824;4.360;2022-10-31T07:42:50;15.50;99.90
2391;DHT22;22957;50.824;4.360;2022-10-31T07:45:18;15.40;99.90
2391;DHT22;22957;50.824;4.360;2022-10-31T07:47:49;15.50;99.90
2391;DHT22;22957;50.824;4.360;2022-10-31T07:50:20;15.50;99.90
2391;DHT22;22957;50.824;4.360;2022-10-31T07:52:46;15.40;99.90
2391;DHT22;22957;50.824;4.360;2022-10-31T07:55:13;15.70;99.90
2391;DHT22;22957;50.824;4.360;2022-10-31T07:57:39;15.30;99.90
2391;DHT22;22957;50.824;4.360;2022-10-31T08:00:08;15.50;99.90
2391;DHT22;22957;50.824;4.360;2022-10-31T08:02:35;15.50;99.90
2391;DHT22;22957;50.824;4.360;2022-10-31T08:05:01;15.70;99.90
2391;DHT22;22957;50.824;4.360;2022-10-31T08:07:28;15.60;99.90
2391;DHT22;22957;50.824;4.360;2022-10-31T08:09:54;15.00;99.90
2391;DHT22;22957;50.824;4.360;2022-10-31T08:12:20;15.00;99.90
2391;DHT22;22957;50.824;4.360;2022-10-31T08:14:47;14.70;99.90
2391;DHT22;22957;50.824;4.360;2022-10-31T08:17:16;15.10;99.90
2391;DHT22;22957;50.824;4.360;2022-10-31T08:19:50;14.60;99.90
2391;DHT22;22957;50.824;4.360;2022-10-31T08:22:43;15.10;99.90
2391;DHT22;22957;50.824;4.360;2022-10-31T08:25:13;14.80;99.90
2391;DHT22;22957;50.824;4.360;2022-10-31T08:27:51;14.60;99.90
2391;DHT22;22957;50.824;4.360;2022-10-31T08:30:57;14.70;99.90
2391;DHT22;22957;50.824;4.360;2022-10-31T08:33:46;14.90;99.90
2391;DHT22;22957;50.824;4.360;2022-10-31T08:36:35;14.70;99.90
2391;DHT22;22957;50.824;4.360;2022-10-31T08:39:03;14.90;99.90
2391;DHT22;22957;50.824;4.360;2022-10-31T08:41:30;14.90;99.90
2391;DHT22;22957;50.824;4.360;2022-10-31T08:44:21;15.00;99.90
2391;DHT22;22957;50.824;4.360;2022-10-31T08:46:47;14.70;99.90
2391;DHT22;22957;50.824;4.360;2022-10-31T08:49:55;14.80;99.90
2391;DHT22;22957;50.824;4.360;2022-10-31T08:52:25;14.70;99.90
2391;DHT22;22957;50.824;4.360;2022-10-31T08:55:16;14.80;99.90
2391;DHT22;22957;50.824;4.360;2022-10-31T08:57:57;15.10;99.90
2391;DHT22;22957;50.824;4.360;2022-10-31T09:00:25;15.30;99.90
2391;DHT22;22957;50.824;4.360;2022-10-31T09:02:59;15.80;99.90
2391;DHT22;22957;50.824;4.360;2022-10-31T09:05:34;16.00;99.90
2391;DHT22;22957;50.824;4.360;2022-10-31T09:08:28;16.10;99.90
2391;DHT22;22957;50.824;4.360;2022-10-31T09:16:26;16.20;99.90
2391;DHT22;22957;50.824;4.360;2022-10-31T09:19:13;16.30;99.90
2391;DHT22;22957;50.824;4.360;2022-10-31T09:22:03;15.60;99.90
2391;DHT22;22957;50.824;4.360;2022-10-31T09:24:37;15.80;99.90
2391;DHT22;22957;50.824;4.360;2022-10-31T09:27:06;16.30;99.90
2391;DHT22;22957;50.824;4.360;2022-10-31T09:29:34;16.10;99.90
2391;DHT22;22957;50.824;4.360;2022-10-31T09:32:00;16.10;99.90
2391;DHT22;22957;50.824;4.360;2022-10-31T09:34:27;16.20;99.90
2391;DHT22;22957;50.824;4.360;2022-10-31T09:36:53;16.80;99.90
2391;DHT22;22957;50.824;4.360;2022-10-31T09:39:20;16.40;99.90
2391;DHT22;22957;50.824;4.360;2022-10-31T09:50:19;16.60;99.90
2391;DHT22;22957;50.824;4.360;2022-10-31T09:53:21;16.70;99.90
2391;DHT22;22957;50.824;4.360;2022-10-31T09:55:53;16.50;99.90
2391;DHT22;22957;50.824;4.360;2022-10-31T09:58:24;16.40;99.90
2391;DHT22;22957;50.824;4.360;2022-10-31T10:00:52;17.00;99.90
2391;DHT22;22957;50.824;4.360;2022-10-31T10:06:21;17.50;99.90
2391;DHT22;22957;50.824;4.360;2022-10-31T10:08:51;17.60;99.90
2391;DHT22;22957;50.824;4.360;2022-10-31T10:14:15;17.40;99.90
2391;DHT22;22957;50.824;4.360;2022-10-31T10:28:02;17.00;99.90
2391;DHT22;22957;50.824;4.360;2022-10-31T10:30:45;17.00;99.90
2391;DHT22;22957;50.824;4.360;2022-10-31T10:33:14;16.50;99.90
2391;DHT22;22957;50.824;4.360;2022-10-31T10:35:47;16.20;99.90
2391;DHT22;22957;50.824;4.360;2022-10-31T10:40:46;16.50;99.90
2391;DHT22;22957;50.824;4.360;2022-10-31T10:51:44;16.00;99.90
2391;DHT22;22957;50.824;4.360;2022-10-31T10:59:51;16.30;99.90
2391;DHT22;22957;50.824;4.360;2022-10-31T11:02:21;16.10;99.90
2391;DHT22;22957;50.824;4.360;2022-10-31T11:04:54;15.80;99.90
2391;DHT22;22957;50.824;4.360;2022-10-31T11:07:21;16.10;99.90
2391;DHT22;22957;50.824;4.360;2022-10-31T11:09:47;16.60;99.90
2391;DHT22;22957;50.824;4.360;2022-10-31T11:12:33;16.10;99.90
2391;DHT22;22957;50.824;4.360;2022-10-31T11:15:06;16.20;99.90
2391;DHT22;22957;50.824;4.360;2022-10-31T11:17:36;16.50;99.90
2391;DHT22;22957;50.824;4.360;2022-10-31T11:22:37;16.40;99.90
2391;DHT22;22957;50.824;4.360;2022-10-31T11:25:22;16.50;99.90
2391;DHT22;22957;50.824;4.360;2022-10-31T11:28:03;16.50;99.90
2391;DHT22;22957;50.824;4.360;2022-10-31T11:30:30;16.70;99.90
2391;DHT22;22957;50.824;4.360;2022-10-31T11:32:56;17.00;99.90
2391;DHT22;22957;50.824;4.360;2022-10-31T11:35:24;17.40;99.90
2391;DHT22;22957;50.824;4.360;2022-10-31T11:37:57;17.70;99.90
2391;DHT22;22957;50.824;4.360;2022-10-31T11:40:28;17.20;99.90
2391;DHT22;22957;50.824;4.360;2022-10-31T11:42:56;17.60;99.90
2391;DHT22;22957;50.824;4.360;2022-10-31T11:47:56;16.90;99.90
2391;DHT22;22957;50.824;4.360;2022-10-31T11:52:53;17.50;99.90
2391;DHT22;22957;50.824;4.360;2022-10-31T11:55:34;17.90;99.90
2391;DHT22;22957;50.824;4.360;2022-10-31T11:58:01;17.10;99.90
2391;DHT22;22957;50.824;4.360;2022-10-31T12:00:30;17.40;99.90
2391;DHT22;22957;50.824;4.360;2022-10-31T12:08:39;18.00;99.90
2391;DHT22;22957;50.824;4.360;2022-10-31T12:17:19;18.30;99.90
2391;DHT22;22957;50.824;4.360;2022-10-31T12:20:03;18.00;99.90
2391;DHT22;22957;50.824;4.360;2022-10-31T12:23:03;17.80;99.90
2391;DHT22;22957;50.824;4.360;2022-10-31T12:25:46;18.20;99.90
2391;DHT22;22957;50.824;4.360;2022-10-31T12:31:15;19.00;99.90
2391;DHT22;22957;50.824;4.360;2022-10-31T12:45:48;20.40;99.90
2391;DHT22;22957;50.824;4.360;2022-10-31T12:51:27;19.90;99.90
2391;DHT22;22957;50.824;4.360;2022-10-31T12:57:53;19.90;99.90
2391;DHT22;22957;50.824;4.360;2022-10-31T13:00:42;19.50;99.90
2391;DHT22;22957;50.824;4.360;2022-10-31T13:06:16;19.60;99.90
2391;DHT22;22957;50.824;4.360;2022-10-31T13:08:53;19.60;99.90
2391;DHT22;22957;50.824;4.360;2022-10-31T13:11:29;20.00;99.90
2391;DHT22;22957;50.824;4.360;2022-10-31T13:16:56;20.60;99.90
2391;DHT22;22957;50.824;4.360;2022-10-31T13:19:37;20.50;99.90
2391;DHT22;22957;50.824;4.360;2022-10-31T13:22:12;20.10;99.90
2391;DHT22;22957;50.824;4.360;2022-10-31T13:25:00;19.60;99.90
2391;DHT22;22957;50.824;4.360;2022-10-31T13:28:01;19.60;99.90
2391;DHT22;22957;50.824;4.360;2022-10-31T13:30:37;19.60;99.90
2391;DHT22;22957;50.824;4.360;2022-10-31T13:33:14;19.50;99.90
2391;DHT22;22957;50.824;4.360;2022-10-31T13:44:22;19.40;99.90
2391;DHT22;22957;50.824;4.360;2022-10-31T13:47:29;19.30;99.90
2391;DHT22;22957;50.824;4.360;2022-10-31T13:53:02;19.20;99.90
2391;DHT22;22957;50.824;4.360;2022-10-31T13:55:42;19.30;99.90
2391;DHT22;22957;50.824;4.360;2022-10-31T13:58:29;19.20;99.90
2391;DHT22;22957;50.824;4.360;2022-10-31T14:01:21;19.30;99.90
2391;DHT22;22957;50.824;4.360;2022-10-31T14:04:06;19.20;99.90
2391;DHT22;22957;50.824;4.360;2022-10-31T14:07:09;19.30;99.90
2391;DHT22;22957;50.824;4.360;2022-10-31T14:10:26;19.40;99.90
2391;DHT22;22957;50.824;4.360;2022-10-31T14:16:05;19.80;99.90
2391;DHT22;22957;50.824;4.360;2022-10-31T14:18:39;19.40;99.90
2391;DHT22;22957;50.824;4.360;2022-10-31T14:21:29;19.50;99.90
2391;DHT22;22957;50.824;4.360;2022-10-31T14:24:28;19.30;99.90
2391;DHT22;22957;50.824;4.360;2022-10-31T14:29:55;19.90;99.90
2391;DHT22;22957;50.824;4.360;2022-10-31T14:32:26;20.00;99.90
2391;DHT22;22957;50.824;4.360;2022-10-31T14:34:57;20.00;99.90
2391;DHT22;22957;50.824;4.360;2022-10-31T14:51:44;20.00;99.90
2391;DHT22;22957;50.824;4.360;2022-10-31T14:54:39;19.90;99.90
2391;DHT22;22957;50.824;4.360;2022-10-31T14:57:16;19.40;99.90
2391;DHT22;22957;50.824;4.360;2022-10-31T14:59:54;19.80;99.90
2391;DHT22;22957;50.824;4.360;2022-10-31T15:02:49;19.80;99.90
2391;DHT22;22957;50.824;4.360;2022-10-31T15:07:55;19.90;99.90
2391;DHT22;22957;50.824;4.360;2022-10-31T15:10:22;19.50;99.90
2391;DHT22;22957;50.824;4.360;2022-10-31T15:13:19;19.20;99.90
2391;DHT22;22957;50.824;4.360;2022-10-31T15:15:48;19.00;99.90
2391;DHT22;22957;50.824;4.360;2022-10-31T15:18:23;19.20;99.90
2391;DHT22;22957;50.824;4.360;2022-10-31T15:20:53;19.10;99.90
2391;DHT22;22957;50.824;4.360;2022-10-31T15:23:25;19.10;99.90
2391;DHT22;22957;50.824;4.360;2022-10-31T15:29:11;18.40;99.90
2391;DHT22;22957;50.824;4.360;2022-10-31T15:32:18;18.40;99.90
2391;DHT22;22957;50.824;4.360;2022-10-31T15:34:50;18.50;99.90
2391;DHT22;22957;50.824;4.360;2022-10-31T15:37:29;18.40;99.90
2391;DHT22;22957;50.824;4.360;2022-10-31T15:40:11;18.50;99.90
2391;DHT22;22957;50.824;4.360;2022-10-31T15:43:04;18.40;99.90
2391;DHT22;22957;50.824;4.360;2022-10-31T15:45:57;18.30;99.90
2391;DHT22;22957;50.824;4.360;2022-10-31T15:48:25;18.40;99.90
2391;DHT22;22957;50.824;4.360;2022-10-31T15:51:12;18.50;99.90
2391;DHT22;22957;50.824;4.360;2022-10-31T15:53:59;18.40;99.90
2391;DHT22;22957;50.824;4.360;2022-10-31T15:56:34;18.20;99.90
2391;DHT22;22957;50.824;4.360;2022-10-31T15:59:00;18.40;99.90
2391;DHT22;22957;50.824;4.360;2022-10-31T16:01:34;18.10;99.90
2391;DHT22;22957;50.824;4.360;2022-10-31T16:06:36;18.40;99.90
2391;DHT22;22957;50.824;4.360;2022-10-31T16:09:03;18.20;99.90
2391;DHT22;22957;50.824;4.360;2022-10-31T16:12:03;18.00;99.90
2391;DHT22;22957;50.824;4.360;2022-10-31T16:14:34;17.70;99.90
2391;DHT22;22957;50.824;4.360;2022-10-31T16:17:14;17.80;99.90
2391;DHT22;22957;50.824;4.360;2022-10-31T16:20:01;17.70;99.90
2391;DHT22;22957;50.824;4.360;2022-10-31T16:22:31;17.70;99.90
2391;DHT22;22957;50.824;4.360;2022-10-31T16:25:11;17.80;99.90
2391;DHT22;22957;50.824;4.360;2022-10-31T16:28:12;17.80;99.90
2391;DHT22;22957;50.824;4.360;2022-10-31T16:30:44;18.10;99.90
2391;DHT22;22957;50.824;4.360;2022-10-31T16:33:35;18.00;99.90
2391;DHT22;22957;50.824;4.360;2022-10-31T16:36:32;18.10;99.90
2391;DHT22;22957;50.824;4.360;2022-10-31T16:38:58;18.00;99.90
2391;DHT22;22957;50.824;4.360;2022-10-31T16:41:25;17.90;99.90
2391;DHT22;22957;50.824;4.360;2022-10-31T16:43:52;18.20;99.90
2391;DHT22;22957;50.824;4.360;2022-10-31T16:46:22;18.10;99.90
2391;DHT22;22957;50.824;4.360;2022-10-31T16:48:49;18.40;99.90
2391;DHT22;22957;50.824;4.360;2022-10-31T16:51:18;17.80;99.90
2391;DHT22;22957;50.824;4.360;2022-10-31T16:53:44;17.80;99.90
2391;DHT22;22957;50.824;4.360;2022-10-31T16:56:16;18.20;99.90
2391;DHT22;22957;50.824;4.360;2022-10-31T16:58:46;18.00;99.90
2391;DHT22;22957;50.824;4.360;2022-10-31T17:01:13;17.90;99.90
2391;DHT22;22957;50.824;4.360;2022-10-31T17:03:40;18.10;99.90
2391;DHT22;22957;50.824;4.360;2022-10-31T17:06:08;18.10;99.90
2391;DHT22;22957;50.824;4.360;2022-10-31T17:08:34;18.20;99.90
2391;DHT22;22957;50.824;4.360;2022-10-31T17:14:03;18.50;99.90
2391;DHT22;22957;50.824;4.360;2022-10-31T17:17:09;18.60;99.90
2391;DHT22;22957;50.824;4.360;2022-10-31T17:19:35;18.50;99.90
2391;DHT22;22957;50.824;4.360;2022-10-31T17:22:01;18.60;99.90
2391;DHT22;22957;50.824;4.360;2022-10-31T17:24:31;18.60;99.90
2391;DHT22;22957;50.824;4.360;2022-10-31T17:26:57;18.40;99.90
2391;DHT22;22957;50.824;4.360;2022-10-31T17:29:23;18.40;99.90
2391;DHT22;22957;50.824;4.360;2022-10-31T17:31:50;18.60;99.90
2391;DHT22;22957;50.824;4.360;2022-10-31T17:34:16;18.40;99.90
2391;DHT22;22957;50.824;4.360;2022-10-31T17:36:51;18.20;99.90
2391;DHT22;22957;50.824;4.360;2022-10-31T17:39:22;18.40;99.90
2391;DHT22;22957;50.824;4.360;2022-10-31T17:41:53;18.40;99.90
2391;DHT22;22957;50.824;4.360;2022-10-31T17:44:19;18.40;99.90
2391;DHT22;22957;50.824;4.360;2022-10-31T17:46:46;18.50;99.90
2391;DHT22;22957;50.824;4.360;2022-10-31T17:49:14;18.40;99.90
2391;DHT22;22957;50.824;4.360;2022-10-31T17:52:02;18.10;99.90
2391;DHT22;22957;50.824;4.360;2022-10-31T17:54:29;18.40;99.90
2391;DHT22;22957;50.824;4.360;2022-10-31T17:57:00;18.20;99.90
2391;DHT22;22957;50.824;4.360;2022-10-31T17:59:29;18.20;99.90
2391;DHT22;22957;50.824;4.360;2022-10-31T18:01:56;18.20;99.90
2391;DHT22;22957;50.824;4.360;2022-10-31T18:04:22;18.40;99.90
2391;DHT22;22957;50.824;4.360;2022-10-31T18:06:52;18.20;99.90
2391;DHT22;22957;50.824;4.360;2022-10-31T18:09:17;18.20;99.90
2391;DHT22;22957;50.824;4.360;2022-10-31T18:11:43;18.30;99.90
2391;DHT22;22957;50.824;4.360;2022-10-31T18:14:18;18.30;99.90
2391;DHT22;22957;50.824;4.360;2022-10-31T18:19:20;18.20;99.90
2391;DHT22;22957;50.824;4.360;2022-10-31T18:21:53;18.40;99.90
2391;DHT22;22957;50.824;4.360;2022-10-31T18:24:46;18.20;99.90
2391;DHT22;22957;50.824;4.360;2022-10-31T18:27:15;18.20;99.90
2391;DHT22;22957;50.824;4.360;2022-10-31T18:29:41;18.30;99.90
2391;DHT22;22957;50.824;4.360;2022-10-31T18:32:07;18.40;99.90
2391;DHT22;22957;50.824;4.360;2022-10-31T18:34:33;17.90;99.90
2391;DHT22;22957;50.824;4.360;2022-10-31T18:37:00;18.00;99.90
2391;DHT22;22957;50.824;4.360;2022-10-31T18:39:26;18.60;99.90
2391;DHT22;22957;50.824;4.360;2022-10-31T18:41:53;18.20;99.90
2391;DHT22;22957;50.824;4.360;2022-10-31T18:44:19;18.00;99.90
2391;DHT22;22957;50.824;4.360;2022-10-31T18:47:02;18.10;99.90
2391;DHT22;22957;50.824;4.360;2022-10-31T18:52:21;18.20;99.90
2391;DHT22;22957;50.824;4.360;2022-10-31T18:55:30;18.20;99.90
2391;DHT22;22957;50.824;4.360;2022-10-31T18:57:57;18.20;99.90
2391;DHT22;22957;50.824;4.360;2022-10-31T19:00:27;18.50;99.90
2391;DHT22;22957;50.824;4.360;2022-10-31T19:03:22;18.00;99.90
2391;DHT22;22957;50.824;4.360;2022-10-31T19:06:12;17.60;99.90
2391;DHT22;22957;50.824;4.360;2022-10-31T19:08:43;18.10;99.90
2391;DHT22;22957;50.824;4.360;2022-10-31T19:11:32;18.40;99.90
2391;DHT22;22957;50.824;4.360;2022-10-31T19:14:21;18.20;99.90
2391;DHT22;22957;50.824;4.360;2022-10-31T19:16:47;18.10;99.90